createdAt,value
2022-11-24T00:01:09.215Z,98.80
2022-11-24T00:03:36.059Z,98.80
2022-11-24T00:06:04.986Z,98.90
2022-11-24T00:08:31.671Z,98.70
2022-11-24T00:11:02.424Z,99.10
2022-11-24T00:13:29.170Z,99.80
2022-11-24T00:15:55.852Z,99.90
2022-11-24T00:18:22.574Z,99.90
2022-11-24T00:20:52.707Z,99.90
2022-11-24T00:23:19.489Z,99.90
2022-11-24T00:25:46.196Z,99.80
2022-11-24T00:28:12.861Z,99.90
2022-11-24T00:30:39.578Z,99.90
2022-11-24T00:33:06.289Z,99.90
2022-11-24T00:35:33.017Z,99.90
2022-11-24T00:37:59.726Z,99.90
2022-11-24T00:40:28.641Z,99.90
2022-11-24T00:42:58.879Z,99.90
2022-11-24T00:45:25.555Z,99.90
2022-11-24T00:47:52.226Z,99.90
2022-11-24T00:50:18.999Z,99.90
2022-11-24T00:52:45.662Z,99.90
2022-11-24T00:55:12.324Z,99.90
2022-11-24T00:57:38.974Z,99.90
2022-11-24T01:00:06.272Z,99.90
2022-11-24T01:02:33.041Z,99.90
2022-11-24T01:04:59.732Z,99.90
2022-11-24T01:07:26.482Z,99.90
2022-11-24T01:09:53.186Z,99.90
2022-11-24T01:12:19.854Z,99.90
2022-11-24T01:14:46.538Z,99.90
2022-11-24T01:17:13.220Z,99.90
2022-11-24T01:19:39.922Z,99.90
2022-11-24T01:22:06.609Z,99.90
2022-11-24T01:24:33.641Z,99.90
2022-11-24T01:27:00.528Z,99.90
2022-11-24T01:29:27.242Z,99.90
2022-11-24T01:31:53.919Z,99.90
2022-11-24T01:34:20.618Z,99.90
2022-11-24T01:36:47.307Z,99.90
2022-11-24T01:39:14.148Z,99.90
2022-11-24T01:41:40.835Z,99.90
2022-11-24T01:44:24.202Z,99.90
2022-11-24T01:46:52.635Z,99.90
2022-11-24T01:49:24.311Z,99.90
2022-11-24T01:51:52.417Z,99.90
2022-11-24T01:54:20.633Z,99.90
2022-11-24T01:56:48.218Z,99.90
2022-11-24T01:59:14.921Z,99.90
2022-11-24T02:01:41.662Z,99.90
2022-11-24T02:04:09.540Z,99.90
2022-11-24T02:06:36.243Z,99.90
2022-11-24T02:09:02.900Z,99.90
2022-11-24T02:11:31.099Z,99.90
2022-11-24T02:13:57.795Z,99.90
2022-11-24T02:16:24.492Z,99.90
2022-11-24T02:18:51.219Z,99.90
2022-11-24T02:21:17.979Z,99.90
2022-11-24T02:24:05.356Z,99.90
2022-11-24T02:26:45.452Z,99.90
2022-11-24T02:29:12.244Z,99.90
2022-11-24T02:31:40.127Z,99.90
2022-11-24T02:34:06.795Z,99.90
2022-11-24T02:36:33.542Z,99.90
2022-11-24T02:39:00.217Z,99.90
2022-11-24T02:41:26.948Z,99.90
2022-11-24T02:43:55.009Z,99.90
2022-11-24T02:46:21.901Z,99.90
2022-11-24T02:48:48.611Z,99.90
2022-11-24T02:51:15.316Z,99.90
2022-11-24T02:53:42.023Z,99.90
2022-11-24T02:56:08.753Z,99.90
2022-11-24T02:58:35.445Z,99.90
2022-11-24T03:01:02.119Z,99.90
2022-11-24T03:03:28.819Z,99.90
2022-11-24T03:05:55.539Z,99.90
2022-11-24T03:08:22.207Z,99.90
2022-11-24T03:10:49.309Z,99.90
2022-11-24T03:13:16.082Z,99.90
2022-11-24T03:15:42.906Z,99.90
2022-11-24T03:18:09.837Z,99.90
2022-11-24T03:20:36.537Z,99.90
2022-11-24T03:23:03.384Z,99.90
2022-11-24T03:25:30.460Z,99.90
2022-11-24T03:27:58.197Z,99.90
2022-11-24T03:30:24.925Z,99.90
2022-11-24T03:32:52.739Z,99.90
2022-11-24T03:35:20.096Z,99.90
2022-11-24T03:37:46.824Z,99.90
2022-11-24T03:40:13.559Z,99.90
2022-11-24T03:42:40.399Z,99.90
2022-11-24T03:47:53.929Z,99.90
2022-11-24T03:50:20.639Z,99.90
2022-11-24T03:52:47.295Z,99.90
2022-11-24T03:55:14.091Z,99.90
2022-11-24T03:57:40.765Z,99.90
2022-11-24T04:00:08.099Z,99.90
2022-11-24T04:02:34.804Z,99.90
2022-11-24T04:05:01.527Z,99.90
2022-11-24T04:07:28.315Z,99.90
2022-11-24T04:09:55.006Z,99.90
2022-11-24T04:12:40.508Z,99.90
2022-11-24T04:15:07.375Z,99.90
2022-11-24T04:17:34.056Z,99.90
2022-11-24T04:20:00.804Z,99.90
2022-11-24T04:22:27.491Z,99.90
2022-11-24T04:24:54.199Z,99.90
2022-11-24T04:27:20.904Z,99.90
2022-11-24T04:29:47.605Z,99.90
2022-11-24T04:32:14.341Z,99.90
2022-11-24T04:34:41.037Z,99.90
2022-11-24T04:37:07.699Z,99.90
2022-11-24T04:39:34.350Z,99.90
2022-11-24T04:42:01.047Z,99.90
2022-11-24T04:44:27.787Z,99.90
2022-11-24T04:46:54.595Z,99.90
2022-11-24T04:49:21.321Z,99.90
2022-11-24T04:51:47.991Z,99.90
2022-11-24T04:54:14.735Z,99.90
2022-11-24T04:56:41.657Z,99.90
2022-11-24T04:59:08.809Z,99.90
2022-11-24T05:01:35.844Z,99.90
2022-11-24T05:04:02.662Z,99.90
2022-11-24T05:06:29.486Z,99.90
2022-11-24T05:08:56.226Z,99.90
2022-11-24T05:11:22.896Z,99.90
2022-11-24T05:13:49.600Z,99.90
2022-11-24T05:16:16.480Z,99.90
2022-11-24T05:18:43.328Z,99.90
2022-11-24T05:21:09.990Z,99.90
2022-11-24T05:23:36.663Z,99.90
2022-11-24T05:26:03.369Z,99.90
2022-11-24T05:28:30.082Z,99.90
2022-11-24T05:31:03.029Z,99.90
2022-11-24T05:33:30.141Z,99.90
2022-11-24T05:36:00.120Z,99.90
2022-11-24T05:38:26.976Z,99.90
2022-11-24T05:40:53.723Z,99.90
2022-11-24T05:43:20.475Z,99.90
2022-11-24T05:45:47.258Z,99.90
2022-11-24T05:48:14.348Z,99.90
2022-11-24T05:50:41.065Z,99.90
2022-11-24T05:53:08.590Z,99.90
2022-11-24T05:55:35.409Z,99.90
2022-11-24T05:58:02.744Z,99.90
2022-11-24T06:00:29.482Z,99.90
2022-11-24T06:02:59.506Z,99.90
2022-11-24T06:05:27.267Z,99.90
2022-11-24T06:07:54.080Z,99.90
2022-11-24T06:10:21.530Z,99.90
2022-11-24T06:12:48.190Z,99.90
2022-11-24T06:15:14.918Z,99.90
2022-11-24T06:17:41.690Z,99.90
2022-11-24T06:20:09.313Z,99.90
2022-11-24T06:22:36.131Z,99.90
2022-11-24T06:25:03.126Z,99.90
2022-11-24T06:27:29.808Z,99.90
2022-11-24T06:29:56.506Z,99.90
2022-11-24T06:32:24.190Z,99.90
2022-11-24T06:34:50.934Z,99.90
2022-11-24T06:37:17.773Z,99.00
2022-11-24T06:39:44.478Z,93.30
2022-11-24T06:42:11.250Z,87.30
2022-11-24T06:44:38.034Z,82.50
2022-11-24T06:47:04.927Z,77.70
2022-11-24T06:49:31.624Z,74.00
2022-11-24T06:51:58.382Z,71.40
2022-11-24T06:54:25.114Z,68.60
2022-11-24T06:56:55.842Z,68.30
2022-11-24T06:59:22.597Z,66.90
2022-11-24T07:01:49.280Z,65.20
2022-11-24T07:04:16.133Z,62.00
2022-11-24T07:06:42.904Z,61.60
2022-11-24T07:09:10.104Z,60.60
2022-11-24T07:11:36.923Z,59.40
2022-11-24T07:14:03.809Z,58.10
2022-11-24T07:16:30.690Z,58.70
2022-11-24T07:18:57.615Z,59.70
2022-11-24T07:21:24.639Z,59.40
2022-11-24T07:23:54.626Z,57.50
2022-11-24T07:26:21.319Z,57.30
2022-11-24T07:28:48.045Z,56.50
2022-11-24T07:31:15.606Z,56.10
2022-11-24T07:33:42.345Z,56.90
2022-11-24T07:36:09.198Z,56.20
2022-11-24T07:38:35.991Z,57.10
2022-11-24T07:41:06.517Z,56.10
2022-11-24T07:43:33.504Z,55.40
2022-11-24T07:46:00.389Z,58.10
2022-11-24T07:48:27.236Z,58.60
2022-11-24T07:50:55.963Z,58.10
2022-11-24T07:53:23.222Z,54.70
2022-11-24T07:55:56.533Z,54.90
2022-11-24T07:58:24.118Z,54.30
2022-11-24T08:00:53.213Z,52.60
2022-11-24T08:03:19.979Z,53.50
2022-11-24T08:06:24.495Z,56.00
2022-11-24T08:08:43.132Z,58.70
2022-11-24T08:11:10.706Z,59.70
2022-11-24T08:13:37.369Z,60.50
2022-11-24T08:16:10.948Z,62.20
2022-11-24T08:18:37.822Z,56.70
2022-11-24T08:21:04.994Z,56.90
2022-11-24T08:23:31.729Z,58.70
2022-11-24T08:26:03.434Z,58.90
2022-11-24T08:28:30.264Z,61.10
2022-11-24T08:31:03.819Z,62.70
2022-11-24T08:33:31.098Z,63.70
2022-11-24T08:36:02.441Z,65.60
2022-11-24T08:38:29.148Z,66.80
2022-11-24T08:40:59.544Z,69.20
2022-11-24T08:43:26.269Z,67.50
2022-11-24T08:45:53.044Z,67.40
2022-11-24T08:48:19.850Z,68.60
2022-11-24T08:50:46.542Z,68.00
2022-11-24T08:53:13.260Z,69.60
2022-11-24T08:55:39.962Z,70.60
2022-11-24T08:58:06.672Z,70.70
2022-11-24T09:00:33.364Z,70.90
2022-11-24T09:03:00.111Z,70.80
2022-11-24T09:05:51.217Z,72.30
2022-11-24T09:08:13.612Z,72.70
2022-11-24T09:10:40.388Z,73.30
2022-11-24T09:13:07.073Z,74.10
2022-11-24T09:15:35.135Z,74.00
2022-11-24T09:18:01.864Z,75.10
2022-11-24T09:20:28.549Z,74.70
2022-11-24T09:22:56.801Z,74.90
2022-11-24T09:25:26.227Z,76.20
2022-11-24T09:27:53.674Z,77.20
2022-11-24T09:30:20.785Z,77.20
2022-11-24T09:32:47.576Z,77.00
2022-11-24T09:35:14.611Z,74.90
2022-11-24T09:37:43.371Z,75.70
2022-11-24T09:40:12.082Z,75.60
2022-11-24T09:42:53.397Z,74.40
2022-11-24T09:45:57.036Z,73.00
2022-11-24T09:48:21.477Z,74.00
2022-11-24T09:50:48.566Z,74.70
2022-11-24T09:53:25.825Z,74.40
2022-11-24T09:55:54.141Z,74.70
2022-11-24T09:58:29.953Z,75.80
2022-11-24T10:00:56.798Z,76.10
2022-11-24T10:03:26.455Z,74.90
2022-11-24T10:05:53.202Z,73.90
2022-11-24T10:08:40.189Z,74.60
2022-11-24T10:11:12.477Z,74.80
2022-11-24T10:13:39.193Z,73.30
2022-11-24T10:16:24.095Z,73.70
2022-11-24T10:18:59.728Z,74.30
2022-11-24T10:21:31.017Z,75.00
2022-11-24T10:23:57.708Z,75.10
2022-11-24T10:26:30.431Z,75.80
2022-11-24T10:28:57.429Z,75.60
2022-11-24T10:31:34.600Z,73.30
2022-11-24T10:34:09.894Z,72.90
2022-11-24T10:36:56.989Z,72.30
2022-11-24T10:39:28.345Z,72.30
2022-11-24T10:41:59.283Z,72.70
2022-11-24T10:44:25.983Z,70.80
2022-11-24T10:46:54.625Z,70.50
2022-11-24T10:49:25.203Z,70.50
2022-11-24T10:51:55.016Z,71.40
2022-11-24T10:54:22.361Z,66.70
2022-11-24T10:56:50.616Z,62.10
2022-11-24T10:59:37.121Z,60.20
2022-11-24T11:02:24.063Z,58.10
2022-11-24T11:04:50.781Z,56.10
2022-11-24T11:07:18.857Z,54.50
2022-11-24T11:09:45.899Z,55.10
2022-11-24T11:15:36.228Z,58.80
2022-11-24T11:18:02.955Z,60.30
2022-11-24T11:20:30.769Z,62.90
2022-11-24T11:22:57.834Z,61.20
2022-11-24T11:25:25.920Z,61.20
2022-11-24T11:27:52.776Z,57.10
2022-11-24T11:36:08.619Z,53.20
2022-11-24T11:38:35.688Z,54.80
2022-11-24T11:41:02.408Z,54.50
2022-11-24T11:43:31.001Z,57.00
2022-11-24T11:46:05.258Z,59.30
2022-11-24T11:48:43.062Z,59.50
2022-11-24T11:51:25.583Z,61.90
2022-11-24T11:53:58.576Z,60.10
2022-11-24T11:56:26.235Z,60.90
2022-11-24T11:59:02.092Z,60.90
2022-11-24T12:01:31.724Z,61.70
2022-11-24T12:04:17.421Z,60.30
2022-11-24T12:07:13.785Z,60.60
2022-11-24T12:09:43.336Z,61.00
2022-11-24T12:12:10.137Z,60.80
2022-11-24T12:14:42.827Z,62.30
2022-11-24T12:17:28.219Z,64.00
2022-11-24T12:20:07.522Z,64.30
2022-11-24T12:22:34.235Z,64.80
2022-11-24T12:25:19.569Z,64.70
2022-11-24T12:27:55.346Z,64.70
2022-11-24T12:30:22.131Z,64.60
2022-11-24T12:33:05.139Z,64.10
2022-11-24T12:35:37.939Z,63.80
2022-11-24T12:38:04.678Z,63.90
2022-11-24T12:40:40.887Z,64.60
2022-11-24T12:43:17.702Z,64.80
2022-11-24T12:45:48.202Z,64.90
2022-11-24T12:48:29.917Z,65.30
2022-11-24T12:50:56.602Z,65.80
2022-11-24T12:53:30.858Z,65.90
2022-11-24T12:56:04.975Z,66.70
2022-11-24T12:58:45.819Z,67.10
2022-11-24T13:01:24.014Z,67.10
2022-11-24T13:03:50.953Z,66.30
2022-11-24T13:06:17.644Z,66.70
2022-11-24T13:08:44.336Z,65.60
2022-11-24T13:11:23.355Z,65.30
2022-11-24T13:14:08.758Z,65.70
2022-11-24T13:16:40.825Z,65.90
2022-11-24T13:19:15.757Z,65.80
2022-11-24T13:21:50.990Z,65.90
2022-11-24T13:24:18.868Z,65.60
2022-11-24T13:26:50.492Z,66.00
2022-11-24T13:29:29.453Z,65.60
2022-11-24T13:32:17.704Z,66.40
2022-11-24T13:34:45.751Z,66.30
2022-11-24T13:37:28.928Z,66.30
2022-11-24T13:40:13.573Z,66.20
2022-11-24T13:42:56.272Z,66.20
2022-11-24T13:45:49.214Z,66.40
2022-11-24T13:48:18.797Z,66.70
2022-11-24T13:50:52.011Z,67.50
2022-11-24T13:53:27.986Z,67.90
2022-11-24T13:56:20.292Z,68.20
2022-11-24T13:58:50.465Z,68.80
2022-11-24T14:01:20.752Z,69.30
2022-11-24T14:04:27.987Z,70.00
2022-11-24T14:06:44.154Z,70.00
2022-11-24T14:09:19.520Z,70.10
2022-11-24T14:11:46.980Z,69.20
2022-11-24T14:14:17.525Z,69.20
2022-11-24T14:16:46.105Z,68.90
2022-11-24T14:19:17.542Z,68.90
2022-11-24T14:21:45.210Z,69.80
2022-11-24T14:24:12.710Z,70.70
2022-11-24T14:26:39.721Z,71.00
2022-11-24T14:29:16.217Z,71.50
2022-11-24T14:31:43.723Z,71.90
2022-11-24T14:34:17.256Z,72.00
2022-11-24T14:36:44.024Z,72.60
2022-11-24T14:39:14.317Z,73.00
2022-11-24T14:41:41.897Z,73.90
2022-11-24T14:44:11.652Z,74.20
2022-11-24T14:46:38.429Z,73.50
2022-11-24T14:49:05.130Z,73.90
2022-11-24T14:51:32.772Z,74.60
2022-11-24T14:54:03.794Z,75.10
2022-11-24T14:56:36.987Z,75.50
2022-11-24T14:59:03.846Z,76.60
2022-11-24T15:01:32.809Z,76.90
2022-11-24T15:04:15.205Z,76.90
2022-11-24T15:07:02.772Z,77.20
2022-11-24T15:09:34.332Z,78.20
2022-11-24T15:12:08.049Z,78.80
2022-11-24T15:14:40.638Z,79.50
2022-11-24T15:17:07.416Z,80.00
2022-11-24T15:19:34.503Z,80.70
2022-11-24T15:22:01.247Z,80.30
2022-11-24T15:24:28.017Z,80.70
2022-11-24T15:27:01.126Z,81.60
2022-11-24T15:29:27.822Z,82.50
2022-11-24T15:31:54.609Z,82.80
2022-11-24T15:34:21.535Z,83.40
2022-11-24T15:36:48.258Z,84.40
2022-11-24T15:39:14.955Z,86.40
2022-11-24T15:41:42.184Z,87.90
2022-11-24T15:44:08.897Z,89.90
2022-11-24T15:46:38.551Z,90.50
2022-11-24T15:49:05.673Z,91.50
2022-11-24T15:51:32.342Z,91.70
2022-11-24T15:54:01.397Z,92.70
2022-11-24T15:56:32.508Z,93.10
2022-11-24T15:58:59.460Z,94.30
2022-11-24T16:01:27.803Z,95.10
2022-11-24T16:03:54.508Z,95.60
2022-11-24T16:06:24.983Z,96.10
2022-11-24T16:08:52.675Z,96.20
2022-11-24T16:11:19.440Z,96.60
2022-11-24T16:13:51.804Z,96.90
2022-11-24T16:16:19.501Z,96.80
2022-11-24T16:18:46.397Z,97.10
2022-11-24T16:21:13.135Z,97.60
2022-11-24T16:23:40.071Z,98.50
2022-11-24T16:26:06.776Z,99.10
2022-11-24T16:28:33.436Z,99.50
2022-11-24T16:31:00.125Z,99.90
2022-11-24T16:33:28.228Z,99.90
2022-11-24T16:35:54.928Z,99.90
2022-11-24T16:38:21.744Z,99.90
2022-11-24T16:40:52.123Z,99.90
2022-11-24T16:43:18.910Z,99.90
2022-11-24T16:45:45.888Z,99.90
2022-11-24T16:48:12.715Z,99.90
2022-11-24T16:50:39.471Z,99.90
2022-11-24T16:53:06.191Z,99.90
2022-11-24T16:55:32.881Z,99.90
2022-11-24T16:57:59.549Z,99.90
2022-11-24T17:00:26.309Z,99.90
2022-11-24T17:02:53.049Z,99.90
2022-11-24T17:05:19.785Z,99.90
2022-11-24T17:07:46.569Z,99.90
2022-11-24T17:10:13.321Z,99.90
2022-11-24T17:12:40.909Z,99.90
2022-11-24T17:15:31.722Z,99.90
2022-11-24T17:18:22.977Z,99.90
2022-11-24T17:20:41.260Z,99.90
2022-11-24T17:23:07.969Z,99.90
2022-11-24T17:25:34.655Z,99.90
2022-11-24T17:28:01.382Z,99.90
2022-11-24T17:30:28.108Z,99.90
2022-11-24T17:32:56.943Z,99.90
2022-11-24T17:35:23.819Z,99.90
2022-11-24T17:37:50.513Z,99.80
2022-11-24T17:40:34.544Z,99.50
2022-11-24T17:43:01.326Z,99.50
2022-11-24T17:45:28.449Z,99.40
2022-11-24T17:47:56.261Z,99.70
2022-11-24T17:50:26.138Z,99.90
2022-11-24T17:52:53.637Z,99.90
2022-11-24T17:55:20.424Z,99.90
2022-11-24T17:57:47.115Z,99.90
2022-11-24T18:00:14.111Z,99.90
2022-11-24T18:02:40.887Z,99.90
2022-11-24T18:05:07.877Z,99.90
2022-11-24T18:07:37.401Z,99.90
2022-11-24T18:10:04.312Z,99.90
2022-11-24T18:12:31.025Z,99.90
2022-11-24T18:14:57.750Z,99.90
2022-11-24T18:17:24.589Z,99.90
2022-11-24T18:19:51.241Z,99.90
2022-11-24T18:22:21.033Z,99.90
2022-11-24T18:24:53.915Z,99.90
2022-11-24T18:27:20.620Z,99.90
2022-11-24T18:29:50.871Z,99.90
2022-11-24T18:32:20.129Z,99.90
2022-11-24T18:34:46.829Z,99.90
2022-11-24T18:37:14.911Z,99.90
2022-11-24T18:39:42.405Z,99.90
2022-11-24T18:42:09.531Z,99.90
2022-11-24T18:44:36.692Z,99.90
2022-11-24T18:47:03.682Z,99.90
2022-11-24T18:49:31.969Z,99.90
2022-11-24T18:51:58.832Z,99.90
2022-11-24T18:54:27.334Z,99.90
2022-11-24T18:56:56.690Z,99.90
2022-11-24T18:59:26.939Z,99.90
2022-11-24T19:01:53.803Z,99.90
2022-11-24T19:04:20.599Z,99.90
2022-11-24T19:06:47.316Z,99.90
2022-11-24T19:09:15.115Z,99.90
2022-11-24T19:11:43.123Z,99.90
2022-11-24T19:14:11.089Z,99.90
2022-11-24T19:16:37.824Z,99.90
2022-11-24T19:19:04.533Z,99.90
2022-11-24T19:21:31.683Z,99.90
2022-11-24T19:24:04.252Z,99.90
2022-11-24T19:26:31.882Z,99.90
2022-11-24T19:28:58.586Z,99.90
2022-11-24T19:31:25.307Z,99.90
2022-11-24T19:33:54.168Z,99.90
2022-11-24T19:36:21.504Z,99.90
2022-11-24T19:38:51.513Z,99.90
2022-11-24T19:41:19.710Z,99.90
2022-11-24T19:43:47.075Z,99.90
2022-11-24T19:46:14.587Z,99.90
2022-11-24T19:48:44.967Z,99.90
2022-11-24T19:51:12.369Z,99.90
2022-11-24T19:53:39.051Z,99.90
2022-11-24T19:56:06.297Z,99.90
2022-11-24T19:58:33.147Z,99.90
2022-11-24T20:01:32.256Z,99.90
2022-11-24T20:03:59.986Z,99.90
2022-11-24T20:06:27.982Z,99.90
2022-11-24T20:08:54.942Z,99.90
2022-11-24T20:11:21.774Z,99.90
2022-11-24T20:13:49.792Z,99.90
2022-11-24T20:16:17.586Z,99.90
2022-11-24T20:18:44.866Z,99.20
2022-11-24T20:21:11.572Z,99.00
2022-11-24T20:23:38.516Z,99.90
2022-11-24T20:26:05.883Z,99.90
2022-11-24T20:28:32.654Z,98.80
2022-11-24T20:31:09.591Z,98.70
2022-11-24T20:33:36.410Z,99.20
2022-11-24T20:36:13.134Z,99.50
2022-11-24T20:38:39.982Z,99.80
2022-11-24T20:41:13.693Z,99.90
2022-11-24T20:43:40.494Z,99.40
2022-11-24T20:46:08.157Z,99.40
2022-11-24T20:48:34.915Z,99.60
2022-11-24T20:51:05.271Z,99.30
2022-11-24T20:53:31.977Z,99.40
2022-11-24T20:56:06.342Z,99.50
2022-11-24T20:58:33.898Z,99.90
2022-11-24T21:01:07.701Z,99.90
2022-11-24T21:03:37.247Z,99.90
2022-11-24T21:06:08.116Z,99.90
2022-11-24T21:08:35.351Z,99.50
2022-11-24T21:11:02.279Z,99.50
2022-11-24T21:13:32.310Z,99.80
2022-11-24T21:15:59.017Z,99.90
2022-11-24T21:18:25.806Z,99.40
2022-11-24T21:20:52.530Z,99.70
2022-11-24T21:23:20.613Z,99.70
2022-11-24T21:25:47.275Z,99.90
2022-11-24T21:28:14.029Z,99.90
2022-11-24T21:30:40.711Z,99.90
2022-11-24T21:33:07.952Z,99.90
2022-11-24T21:35:35.315Z,99.90
2022-11-24T21:38:02.205Z,99.90
2022-11-24T21:40:29.046Z,99.90
2022-11-24T21:42:57.609Z,99.90
2022-11-24T21:45:24.344Z,99.90
2022-11-24T21:47:51.074Z,99.90
2022-11-24T21:50:17.850Z,99.90
2022-11-24T21:52:44.545Z,99.90
2022-11-24T21:55:11.273Z,99.90
2022-11-24T21:57:38.542Z,99.90
2022-11-24T22:00:05.810Z,99.90
2022-11-24T22:02:32.788Z,99.90
2022-11-24T22:04:59.523Z,99.90
2022-11-24T22:07:26.238Z,99.90
2022-11-24T22:09:52.968Z,99.90
2022-11-24T22:12:19.694Z,99.90
2022-11-24T22:14:46.473Z,99.90
2022-11-24T22:17:14.629Z,99.90
2022-11-24T22:19:41.291Z,99.90
2022-11-24T22:22:08.193Z,99.90
2022-11-24T22:24:34.881Z,99.90
2022-11-24T22:27:02.986Z,99.90
2022-11-24T22:29:29.721Z,99.90
2022-11-24T22:31:56.485Z,99.90
2022-11-24T22:34:23.289Z,99.90
2022-11-24T22:36:50.061Z,99.90
2022-11-24T22:39:16.777Z,99.90
2022-11-24T22:41:43.499Z,99.90
2022-11-24T22:44:10.151Z,99.90
2022-11-24T22:46:36.841Z,99.90
2022-11-24T22:49:03.551Z,99.90
2022-11-24T22:51:31.470Z,99.90
2022-11-24T22:53:59.070Z,99.90
2022-11-24T22:56:27.884Z,99.90
2022-11-24T22:58:54.628Z,99.90
2022-11-24T23:01:22.003Z,99.90
2022-11-24T23:03:49.039Z,99.90
2022-11-24T23:06:16.762Z,99.90
2022-11-24T23:08:43.500Z,99.90
2022-11-24T23:11:11.074Z,99.90
2022-11-24T23:13:37.789Z,99.90
2022-11-24T23:16:11.259Z,99.90
2022-11-24T23:18:38.051Z,99.90
2022-11-24T23:21:08.488Z,99.90
2022-11-24T23:23:35.244Z,99.90
2022-11-24T23:26:02.639Z,99.90
2022-11-24T23:28:29.455Z,99.90
2022-11-24T23:31:02.813Z,99.90
2022-11-24T23:33:29.779Z,99.90
2022-11-24T23:35:56.461Z,99.90
2022-11-24T23:38:28.565Z,99.90
2022-11-24T23:40:56.508Z,99.90
2022-11-24T23:43:23.201Z,99.90
2022-11-24T23:45:50.013Z,99.90
2022-11-24T23:48:16.782Z,99.90
2022-11-24T23:50:43.619Z,99.90
2022-11-24T23:53:10.306Z,99.90
2022-11-24T23:55:36.977Z,99.90
2022-11-24T23:58:03.911Z,99.90
